sensor_id;sensor_type;location;lat;lon;timestamp;temperature;humidity
13433;DHT22;6789;47.678;9.158;2023-12-29T00:02:45;5.00;99.90
13433;DHT22;6789;47.678;9.158;2023-12-29T00:07:37;4.90;99.90
13433;DHT22;6789;47.678;9.158;2023-12-29T00:12:29;5.10;99.90
13433;DHT22;6789;47.678;9.158;2023-12-29T00:17:21;5.10;99.90
13433;DHT22;6789;47.678;9.158;2023-12-29T00:22:12;5.20;99.90
13433;DHT22;6789;47.678;9.158;2023-12-29T00:27:04;5.40;99.90
13433;DHT22;6789;47.678;9.158;2023-12-29T00:31:56;5.60;99.90
13433;DHT22;6789;47.678;9.158;2023-12-29T00:36:48;5.60;99.90
13433;DHT22;6789;47.678;9.158;2023-12-29T00:41:40;5.90;99.90
13433;DHT22;6789;47.678;9.158;2023-12-29T00:46:35;6.10;99.90
13433;DHT22;6789;47.678;9.158;2023-12-29T00:51:27;6.20;99.90
13433;DHT22;6789;47.678;9.158;2023-12-29T00:56:19;6.20;99.90
13433;DHT22;6789;47.678;9.158;2023-12-29T01:01:11;6.20;99.90
13433;DHT22;6789;47.678;9.158;2023-12-29T01:06:03;6.20;99.90
13433;DHT22;6789;47.678;9.158;2023-12-29T01:10:55;6.40;99.90
13433;DHT22;6789;47.678;9.158;2023-12-29T01:15:47;6.40;99.90
13433;DHT22;6789;47.678;9.158;2023-12-29T01:20:39;6.50;99.90
13433;DHT22;6789;47.678;9.158;2023-12-29T01:25:32;6.40;99.90
13433;DHT22;6789;47.678;9.158;2023-12-29T01:35:30;6.10;99.90
13433;DHT22;6789;47.678;9.158;2023-12-29T01:40:22;6.00;99.90
13433;DHT22;6789;47.678;9.158;2023-12-29T01:45:24;5.80;99.90
13433;DHT22;6789;47.678;9.158;2023-12-29T01:50:21;5.50;99.90
13433;DHT22;6789;47.678;9.158;2023-12-29T01:55:17;5.50;99.90
13433;DHT22;6789;47.678;9.158;2023-12-29T02:00:12;5.40;99.90
13433;DHT22;6789;47.678;9.158;2023-12-29T02:05:05;5.30;99.90
13433;DHT22;6789;47.678;9.158;2023-12-29T02:09:58;5.30;99.90
13433;DHT22;6789;47.678;9.158;2023-12-29T02:14:51;5.10;99.90
13433;DHT22;6789;47.678;9.158;2023-12-29T02:19:45;5.10;99.90
13433;DHT22;6789;47.678;9.158;2023-12-29T02:24:48;5.00;99.90
13433;DHT22;6789;47.678;9.158;2023-12-29T02:29:44;4.90;99.90
13433;DHT22;6789;47.678;9.158;2023-12-29T02:34:47;5.00;99.90
13433;DHT22;6789;47.678;9.158;2023-12-29T02:39:42;5.00;99.90
13433;DHT22;6789;47.678;9.158;2023-12-29T02:44:34;4.90;99.90
13433;DHT22;6789;47.678;9.158;2023-12-29T02:49:26;4.90;99.90
13433;DHT22;6789;47.678;9.158;2023-12-29T02:54:18;4.80;99.90
13433;DHT22;6789;47.678;9.158;2023-12-29T02:59:10;4.80;99.90
13433;DHT22;6789;47.678;9.158;2023-12-29T03:04:02;4.90;99.90
13433;DHT22;6789;47.678;9.158;2023-12-29T03:08:54;4.80;99.90
13433;DHT22;6789;47.678;9.158;2023-12-29T03:13:46;4.80;99.90
13433;DHT22;6789;47.678;9.158;2023-12-29T03:18:37;4.90;99.90
13433;DHT22;6789;47.678;9.158;2023-12-29T03:23:31;4.90;99.90
13433;DHT22;6789;47.678;9.158;2023-12-29T03:28:23;5.00;99.90
13433;DHT22;6789;47.678;9.158;2023-12-29T03:33:15;4.90;99.90
13433;DHT22;6789;47.678;9.158;2023-12-29T03:38:07;4.90;99.90
13433;DHT22;6789;47.678;9.158;2023-12-29T03:42:59;5.00;99.90
13433;DHT22;6789;47.678;9.158;2023-12-29T03:47:50;5.10;99.90
13433;DHT22;6789;47.678;9.158;2023-12-29T03:52:42;5.10;99.90
13433;DHT22;6789;47.678;9.158;2023-12-29T03:57:34;5.20;99.90
13433;DHT22;6789;47.678;9.158;2023-12-29T04:02:26;5.30;99.90
13433;DHT22;6789;47.678;9.158;2023-12-29T04:07:18;5.30;99.90
13433;DHT22;6789;47.678;9.158;2023-12-29T04:12:09;5.40;99.90
13433;DHT22;6789;47.678;9.158;2023-12-29T04:17:02;5.50;99.90
13433;DHT22;6789;47.678;9.158;2023-12-29T04:21:56;5.60;99.90
13433;DHT22;6789;47.678;9.158;2023-12-29T04:26:48;5.80;99.90
13433;DHT22;6789;47.678;9.158;2023-12-29T04:31:40;6.10;99.90
13433;DHT22;6789;47.678;9.158;2023-12-29T04:36:32;6.40;99.90
13433;DHT22;6789;47.678;9.158;2023-12-29T04:41:24;6.60;99.90
13433;DHT22;6789;47.678;9.158;2023-12-29T04:46:16;6.80;99.90
13433;DHT22;6789;47.678;9.158;2023-12-29T04:51:08;7.10;99.90
13433;DHT22;6789;47.678;9.158;2023-12-29T04:56:00;7.40;99.90
13433;DHT22;6789;47.678;9.158;2023-12-29T05:00:52;7.80;99.90
13433;DHT22;6789;47.678;9.158;2023-12-29T05:05:44;7.80;99.90
13433;DHT22;6789;47.678;9.158;2023-12-29T05:10:36;7.80;99.90
13433;DHT22;6789;47.678;9.158;2023-12-29T05:15:28;7.90;99.90
13433;DHT22;6789;47.678;9.158;2023-12-29T05:20:20;8.10;99.90
13433;DHT22;6789;47.678;9.158;2023-12-29T05:25:11;8.10;99.90
13433;DHT22;6789;47.678;9.158;2023-12-29T05:30:04;8.10;99.90
13433;DHT22;6789;47.678;9.158;2023-12-29T05:34:56;8.00;99.90
13433;DHT22;6789;47.678;9.158;2023-12-29T05:39:48;7.90;99.90
13433;DHT22;6789;47.678;9.158;2023-12-29T05:44:40;8.00;99.90
13433;DHT22;6789;47.678;9.158;2023-12-29T05:49:31;7.80;99.90
13433;DHT22;6789;47.678;9.158;2023-12-29T05:54:29;7.80;99.90
13433;DHT22;6789;47.678;9.158;2023-12-29T05:59:21;7.90;99.90
13433;DHT22;6789;47.678;9.158;2023-12-29T06:04:12;8.10;99.90
13433;DHT22;6789;47.678;9.158;2023-12-29T06:09:04;8.30;99.90
13433;DHT22;6789;47.678;9.158;2023-12-29T06:13:57;8.50;99.90
13433;DHT22;6789;47.678;9.158;2023-12-29T06:18:48;8.40;99.90
13433;DHT22;6789;47.678;9.158;2023-12-29T06:23:41;8.40;99.90
13433;DHT22;6789;47.678;9.158;2023-12-29T06:28:33;8.40;99.90
13433;DHT22;6789;47.678;9.158;2023-12-29T06:33:24;8.30;99.90
13433;DHT22;6789;47.678;9.158;2023-12-29T06:38:17;8.10;99.90
13433;DHT22;6789;47.678;9.158;2023-12-29T06:43:08;8.00;99.90
13433;DHT22;6789;47.678;9.158;2023-12-29T06:48:00;8.10;99.90
13433;DHT22;6789;47.678;9.158;2023-12-29T06:52:54;8.00;99.90
13433;DHT22;6789;47.678;9.158;2023-12-29T06:57:45;8.00;99.90
13433;DHT22;6789;47.678;9.158;2023-12-29T07:02:38;8.10;99.90
13433;DHT22;6789;47.678;9.158;2023-12-29T07:07:31;8.20;99.90
13433;DHT22;6789;47.678;9.158;2023-12-29T07:12:23;8.30;99.90
13433;DHT22;6789;47.678;9.158;2023-12-29T07:17:15;8.40;99.90
13433;DHT22;6789;47.678;9.158;2023-12-29T07:22:07;8.40;99.90
13433;DHT22;6789;47.678;9.158;2023-12-29T07:26:59;8.40;99.90
13433;DHT22;6789;47.678;9.158;2023-12-29T07:31:51;8.40;99.90
13433;DHT22;6789;47.678;9.158;2023-12-29T07:36:43;8.40;99.90
13433;DHT22;6789;47.678;9.158;2023-12-29T07:41:39;8.30;99.90
13433;DHT22;6789;47.678;9.158;2023-12-29T07:46:32;8.30;99.90
13433;DHT22;6789;47.678;9.158;2023-12-29T07:51:24;8.30;99.90
13433;DHT22;6789;47.678;9.158;2023-12-29T07:56:16;8.40;99.90
13433;DHT22;6789;47.678;9.158;2023-12-29T08:01:08;8.40;99.90
13433;DHT22;6789;47.678;9.158;2023-12-29T08:06:00;8.40;99.90
13433;DHT22;6789;47.678;9.158;2023-12-29T08:10:52;8.50;99.90
13433;DHT22;6789;47.678;9.158;2023-12-29T08:15:44;8.60;99.90
13433;DHT22;6789;47.678;9.158;2023-12-29T08:20:36;8.60;99.90
13433;DHT22;6789;47.678;9.158;2023-12-29T08:25:27;8.50;99.90
13433;DHT22;6789;47.678;9.158;2023-12-29T08:30:19;8.60;99.90
13433;DHT22;6789;47.678;9.158;2023-12-29T08:35:11;8.70;99.90
13433;DHT22;6789;47.678;9.158;2023-12-29T08:40:04;8.60;99.90
13433;DHT22;6789;47.678;9.158;2023-12-29T08:44:59;8.50;99.90
13433;DHT22;6789;47.678;9.158;2023-12-29T08:49:51;8.50;99.90
13433;DHT22;6789;47.678;9.158;2023-12-29T08:54:43;8.50;99.90
13433;DHT22;6789;47.678;9.158;2023-12-29T08:59:35;8.50;99.90
13433;DHT22;6789;47.678;9.158;2023-12-29T09:04:27;8.60;99.90
13433;DHT22;6789;47.678;9.158;2023-12-29T09:09:18;8.60;99.90
13433;DHT22;6789;47.678;9.158;2023-12-29T09:14:10;8.60;99.90
13433;DHT22;6789;47.678;9.158;2023-12-29T09:19:02;8.70;99.90
13433;DHT22;6789;47.678;9.158;2023-12-29T09:24:08;9.00;99.90
13433;DHT22;6789;47.678;9.158;2023-12-29T09:29:00;9.30;99.90
13433;DHT22;6789;47.678;9.158;2023-12-29T09:33:52;9.50;99.90
13433;DHT22;6789;47.678;9.158;2023-12-29T09:38:44;9.60;99.90
13433;DHT22;6789;47.678;9.158;2023-12-29T09:43:39;9.70;99.90
13433;DHT22;6789;47.678;9.158;2023-12-29T09:48:34;9.80;99.90
13433;DHT22;6789;47.678;9.158;2023-12-29T09:53:28;9.80;99.90
13433;DHT22;6789;47.678;9.158;2023-12-29T09:58:36;9.80;99.90
13433;DHT22;6789;47.678;9.158;2023-12-29T10:03:29;9.90;99.90
13433;DHT22;6789;47.678;9.158;2023-12-29T10:08:22;10.00;99.90
13433;DHT22;6789;47.678;9.158;2023-12-29T10:13:29;10.10;99.90
13433;DHT22;6789;47.678;9.158;2023-12-29T10:18:33;10.20;99.90
13433;DHT22;6789;47.678;9.158;2023-12-29T10:29:01;10.30;99.90
13433;DHT22;6789;47.678;9.158;2023-12-29T10:34:19;10.40;99.90
13433;DHT22;6789;47.678;9.158;2023-12-29T10:39:22;10.50;99.90
13433;DHT22;6789;47.678;9.158;2023-12-29T10:44:14;10.70;99.90
13433;DHT22;6789;47.678;9.158;2023-12-29T10:49:11;10.90;99.90
13433;DHT22;6789;47.678;9.158;2023-12-29T10:54:05;11.00;99.90
13433;DHT22;6789;47.678;9.158;2023-12-29T10:59:03;11.20;99.90
13433;DHT22;6789;47.678;9.158;2023-12-29T11:04:08;11.30;99.90
13433;DHT22;6789;47.678;9.158;2023-12-29T11:09:01;11.40;99.90
13433;DHT22;6789;47.678;9.158;2023-12-29T11:13:53;11.40;99.90
13433;DHT22;6789;47.678;9.158;2023-12-29T11:18:45;11.50;99.90
13433;DHT22;6789;47.678;9.158;2023-12-29T11:23:37;11.50;99.90
13433;DHT22;6789;47.678;9.158;2023-12-29T11:28:30;11.50;99.90
13433;DHT22;6789;47.678;9.158;2023-12-29T11:33:25;11.50;99.90
13433;DHT22;6789;47.678;9.158;2023-12-29T11:38:28;11.60;99.90
13433;DHT22;6789;47.678;9.158;2023-12-29T11:43:27;11.70;99.90
13433;DHT22;6789;47.678;9.158;2023-12-29T11:49:17;11.70;99.90
13433;DHT22;6789;47.678;9.158;2023-12-29T11:54:02;11.60;99.90
13433;DHT22;6789;47.678;9.158;2023-12-29T11:58:55;11.60;99.90
13433;DHT22;6789;47.678;9.158;2023-12-29T12:03:47;11.60;99.90
13433;DHT22;6789;47.678;9.158;2023-12-29T12:08:39;11.70;99.90
13433;DHT22;6789;47.678;9.158;2023-12-29T12:13:45;11.70;99.90
13433;DHT22;6789;47.678;9.158;2023-12-29T12:18:39;11.80;99.90
13433;DHT22;6789;47.678;9.158;2023-12-29T12:23:33;11.80;99.90
13433;DHT22;6789;47.678;9.158;2023-12-29T12:28:28;11.90;99.90
13433;DHT22;6789;47.678;9.158;2023-12-29T12:33:21;11.90;99.90
13433;DHT22;6789;47.678;9.158;2023-12-29T12:38:14;11.90;99.90
13433;DHT22;6789;47.678;9.158;2023-12-29T12:43:14;12.00;99.90
13433;DHT22;6789;47.678;9.158;2023-12-29T12:48:20;12.00;99.90
13433;DHT22;6789;47.678;9.158;2023-12-29T12:53:15;12.10;99.90
13433;DHT22;6789;47.678;9.158;2023-12-29T12:58:14;12.10;99.90
13433;DHT22;6789;47.678;9.158;2023-12-29T13:03:06;12.20;99.90
13433;DHT22;6789;47.678;9.158;2023-12-29T13:07:59;12.30;99.90
13433;DHT22;6789;47.678;9.158;2023-12-29T13:12:54;12.30;99.90
13433;DHT22;6789;47.678;9.158;2023-12-29T13:17:53;12.20;99.90
13433;DHT22;6789;47.678;9.158;2023-12-29T13:22:52;12.20;99.90
13433;DHT22;6789;47.678;9.158;2023-12-29T13:27:45;12.10;99.90
13433;DHT22;6789;47.678;9.158;2023-12-29T13:32:56;12.10;99.90
13433;DHT22;6789;47.678;9.158;2023-12-29T13:38:08;12.10;99.90
13433;DHT22;6789;47.678;9.158;2023-12-29T13:43:03;12.00;99.90
13433;DHT22;6789;47.678;9.158;2023-12-29T13:48:00;12.10;99.90
13433;DHT22;6789;47.678;9.158;2023-12-29T13:52:53;12.00;99.90
13433;DHT22;6789;47.678;9.158;2023-12-29T13:57:45;12.00;99.90
13433;DHT22;6789;47.678;9.158;2023-12-29T14:02:39;11.90;99.90
13433;DHT22;6789;47.678;9.158;2023-12-29T14:07:32;11.90;99.90
13433;DHT22;6789;47.678;9.158;2023-12-29T14:12:24;11.90;99.90
13433;DHT22;6789;47.678;9.158;2023-12-29T14:17:22;11.90;99.90
13433;DHT22;6789;47.678;9.158;2023-12-29T14:22:22;11.90;99.90
13433;DHT22;6789;47.678;9.158;2023-12-29T14:27:14;11.90;99.90
13433;DHT22;6789;47.678;9.158;2023-12-29T14:32:09;11.90;99.90
13433;DHT22;6789;47.678;9.158;2023-12-29T14:37:01;11.90;99.90
13433;DHT22;6789;47.678;9.158;2023-12-29T14:41:53;11.80;99.90
13433;DHT22;6789;47.678;9.158;2023-12-29T14:46:45;11.70;99.90
13433;DHT22;6789;47.678;9.158;2023-12-29T14:51:36;11.60;99.90
13433;DHT22;6789;47.678;9.158;2023-12-29T14:56:28;11.60;99.90
13433;DHT22;6789;47.678;9.158;2023-12-29T15:01:34;11.50;99.90
13433;DHT22;6789;47.678;9.158;2023-12-29T15:06:26;11.40;99.90
13433;DHT22;6789;47.678;9.158;2023-12-29T15:11:18;11.40;99.90
13433;DHT22;6789;47.678;9.158;2023-12-29T15:16:12;11.30;99.90
13433;DHT22;6789;47.678;9.158;2023-12-29T15:21:04;11.20;99.90
13433;DHT22;6789;47.678;9.158;2023-12-29T15:25:56;11.10;99.90
13433;DHT22;6789;47.678;9.158;2023-12-29T15:30:48;11.00;99.90
13433;DHT22;6789;47.678;9.158;2023-12-29T15:35:41;11.10;99.90
13433;DHT22;6789;47.678;9.158;2023-12-29T15:40:33;11.10;99.90
13433;DHT22;6789;47.678;9.158;2023-12-29T15:45:25;10.90;99.90
13433;DHT22;6789;47.678;9.158;2023-12-29T15:50:17;10.90;99.90
13433;DHT22;6789;47.678;9.158;2023-12-29T15:55:10;10.70;99.90
13433;DHT22;6789;47.678;9.158;2023-12-29T16:00:02;10.60;99.90
13433;DHT22;6789;47.678;9.158;2023-12-29T16:04:57;10.50;99.90
13433;DHT22;6789;47.678;9.158;2023-12-29T16:09:48;10.40;99.90
13433;DHT22;6789;47.678;9.158;2023-12-29T16:14:40;10.40;99.90
13433;DHT22;6789;47.678;9.158;2023-12-29T16:19:32;10.40;99.90
13433;DHT22;6789;47.678;9.158;2023-12-29T16:24:25;10.60;99.90
13433;DHT22;6789;47.678;9.158;2023-12-29T16:29:18;10.70;99.90
13433;DHT22;6789;47.678;9.158;2023-12-29T16:34:10;10.70;99.90
13433;DHT22;6789;47.678;9.158;2023-12-29T16:39:02;10.60;99.90
13433;DHT22;6789;47.678;9.158;2023-12-29T16:43:55;10.50;99.90
13433;DHT22;6789;47.678;9.158;2023-12-29T16:48:47;10.40;99.90
13433;DHT22;6789;47.678;9.158;2023-12-29T16:53:41;10.40;99.90
13433;DHT22;6789;47.678;9.158;2023-12-29T16:58:32;10.50;99.90
13433;DHT22;6789;47.678;9.158;2023-12-29T17:03:24;10.70;99.90
13433;DHT22;6789;47.678;9.158;2023-12-29T17:08:16;10.70;99.90
13433;DHT22;6789;47.678;9.158;2023-12-29T17:13:08;10.70;99.90
13433;DHT22;6789;47.678;9.158;2023-12-29T17:18:00;10.70;99.90
13433;DHT22;6789;47.678;9.158;2023-12-29T17:22:52;10.70;99.90
13433;DHT22;6789;47.678;9.158;2023-12-29T17:27:44;10.70;99.90
13433;DHT22;6789;47.678;9.158;2023-12-29T17:32:37;10.70;99.90
13433;DHT22;6789;47.678;9.158;2023-12-29T17:37:29;10.70;99.90
13433;DHT22;6789;47.678;9.158;2023-12-29T17:42:24;10.60;99.90
13433;DHT22;6789;47.678;9.158;2023-12-29T17:47:16;10.60;99.90
13433;DHT22;6789;47.678;9.158;2023-12-29T17:52:09;10.60;99.90
13433;DHT22;6789;47.678;9.158;2023-12-29T17:57:00;10.50;99.90
13433;DHT22;6789;47.678;9.158;2023-12-29T18:01:52;10.20;99.90
13433;DHT22;6789;47.678;9.158;2023-12-29T18:06:47;10.00;99.90
13433;DHT22;6789;47.678;9.158;2023-12-29T18:11:51;10.00;99.90
13433;DHT22;6789;47.678;9.158;2023-12-29T18:16:43;9.90;99.90
13433;DHT22;6789;47.678;9.158;2023-12-29T18:21:35;10.00;99.90
13433;DHT22;6789;47.678;9.158;2023-12-29T18:26:28;10.10;99.90
13433;DHT22;6789;47.678;9.158;2023-12-29T18:31:20;10.20;99.90
13433;DHT22;6789;47.678;9.158;2023-12-29T18:36:12;10.00;99.90
13433;DHT22;6789;47.678;9.158;2023-12-29T18:41:05;9.80;99.90
13433;DHT22;6789;47.678;9.158;2023-12-29T18:46:04;9.70;99.90
13433;DHT22;6789;47.678;9.158;2023-12-29T18:51:01;9.70;99.90
13433;DHT22;6789;47.678;9.158;2023-12-29T18:55:53;9.70;99.90
13433;DHT22;6789;47.678;9.158;2023-12-29T19:00:45;9.50;99.90
13433;DHT22;6789;47.678;9.158;2023-12-29T19:05:39;9.50;99.90
13433;DHT22;6789;47.678;9.158;2023-12-29T19:10:31;9.40;99.90
13433;DHT22;6789;47.678;9.158;2023-12-29T19:15:25;9.30;99.90
13433;DHT22;6789;47.678;9.158;2023-12-29T19:20:17;9.20;99.90
13433;DHT22;6789;47.678;9.158;2023-12-29T19:25:12;9.20;99.90
13433;DHT22;6789;47.678;9.158;2023-12-29T19:30:05;9.10;99.90
13433;DHT22;6789;47.678;9.158;2023-12-29T19:34:58;9.10;99.90
13433;DHT22;6789;47.678;9.158;2023-12-29T19:39:50;9.00;99.90
13433;DHT22;6789;47.678;9.158;2023-12-29T19:44:42;9.00;99.90
13433;DHT22;6789;47.678;9.158;2023-12-29T19:49:33;9.10;99.90
13433;DHT22;6789;47.678;9.158;2023-12-29T19:54:25;9.00;99.90
13433;DHT22;6789;47.678;9.158;2023-12-29T19:59:18;9.00;99.90
13433;DHT22;6789;47.678;9.158;2023-12-29T20:04:10;9.10;99.90
13433;DHT22;6789;47.678;9.158;2023-12-29T20:09:02;9.00;99.90
13433;DHT22;6789;47.678;9.158;2023-12-29T20:13:58;9.00;99.90
13433;DHT22;6789;47.678;9.158;2023-12-29T20:18:55;9.00;99.90
13433;DHT22;6789;47.678;9.158;2023-12-29T20:23:47;8.90;99.90
13433;DHT22;6789;47.678;9.158;2023-12-29T20:28:39;8.90;99.90
13433;DHT22;6789;47.678;9.158;2023-12-29T20:33:31;8.80;99.90
13433;DHT22;6789;47.678;9.158;2023-12-29T20:38:23;8.80;99.90
13433;DHT22;6789;47.678;9.158;2023-12-29T20:43:15;8.80;99.90
13433;DHT22;6789;47.678;9.158;2023-12-29T20:48:07;8.80;99.90
13433;DHT22;6789;47.678;9.158;2023-12-29T20:52:59;8.90;99.90
13433;DHT22;6789;47.678;9.158;2023-12-29T20:57:52;9.00;99.90
13433;DHT22;6789;47.678;9.158;2023-12-29T21:02:43;9.00;99.90
13433;DHT22;6789;47.678;9.158;2023-12-29T21:07:35;9.20;99.90
13433;DHT22;6789;47.678;9.158;2023-12-29T21:12:27;9.20;99.90
13433;DHT22;6789;47.678;9.158;2023-12-29T21:17:19;9.30;99.90
13433;DHT22;6789;47.678;9.158;2023-12-29T21:22:11;9.30;99.90
13433;DHT22;6789;47.678;9.158;2023-12-29T21:27:03;9.30;99.90
13433;DHT22;6789;47.678;9.158;2023-12-29T21:31:56;9.40;99.90
13433;DHT22;6789;47.678;9.158;2023-12-29T21:36:48;9.50;99.90
13433;DHT22;6789;47.678;9.158;2023-12-29T21:41:39;9.40;99.90
13433;DHT22;6789;47.678;9.158;2023-12-29T21:46:31;9.40;99.90
13433;DHT22;6789;47.678;9.158;2023-12-29T21:51:24;9.40;99.90
13433;DHT22;6789;47.678;9.158;2023-12-29T21:56:17;9.50;99.90
13433;DHT22;6789;47.678;9.158;2023-12-29T22:01:29;9.50;99.90
13433;DHT22;6789;47.678;9.158;2023-12-29T22:06:25;9.50;99.90
13433;DHT22;6789;47.678;9.158;2023-12-29T22:11:17;9.40;99.90
13433;DHT22;6789;47.678;9.158;2023-12-29T22:16:12;9.50;99.90
13433;DHT22;6789;47.678;9.158;2023-12-29T22:21:05;9.50;99.90
13433;DHT22;6789;47.678;9.158;2023-12-29T22:25:57;9.50;99.90
13433;DHT22;6789;47.678;9.158;2023-12-29T22:30:48;9.40;99.90
13433;DHT22;6789;47.678;9.158;2023-12-29T22:35:40;9.40;99.90
13433;DHT22;6789;47.678;9.158;2023-12-29T22:40:32;9.30;99.90
13433;DHT22;6789;47.678;9.158;2023-12-29T22:45:24;9.30;99.90
13433;DHT22;6789;47.678;9.158;2023-12-29T22:50:18;9.40;99.90
13433;DHT22;6789;47.678;9.158;2023-12-29T22:55:10;9.30;99.90
13433;DHT22;6789;47.678;9.158;2023-12-29T23:00:02;9.30;99.90
13433;DHT22;6789;47.678;9.158;2023-12-29T23:05:09;9.30;99.90
13433;DHT22;6789;47.678;9.158;2023-12-29T23:10:15;9.30;99.90
13433;DHT22;6789;47.678;9.158;2023-12-29T23:15:23;9.30;99.90
13433;DHT22;6789;47.678;9.158;2023-12-29T23:20:14;9.30;99.90
13433;DHT22;6789;47.678;9.158;2023-12-29T23:25:06;9.20;99.90
13433;DHT22;6789;47.678;9.158;2023-12-29T23:29:59;9.30;99.90
13433;DHT22;6789;47.678;9.158;2023-12-29T23:34:51;9.30;99.90
13433;DHT22;6789;47.678;9.158;2023-12-29T23:39:43;9.30;99.90
13433;DHT22;6789;47.678;9.158;2023-12-29T23:44:35;9.30;99.90
13433;DHT22;6789;47.678;9.158;2023-12-29T23:49:29;9.30;99.90
13433;DHT22;6789;47.678;9.158;2023-12-29T23:54:22;9.30;99.90
13433;DHT22;6789;47.678;9.158;2023-12-29T23:59:14;9.30;99.90
